Time;durP1;ratioP1;P1;durP2;ratioP2;P2;SDS_P1;SDS_P2;PMS_P1;PMS_P2;Temp;Humidity;BMP_temperature;BMP_pressure;BME280_temperature;BME280_humidity;BME280_pressure;Samples;Min_cycle;Max_cycle;Signal;HPM_P1;HPM_P2
2023/05/21 00:02:14;;;;;;;9.00;6.70;;;15.00;99.90;;;;;;5043837;28;20542;-77
2023/05/21 00:04:40;;;;;;;8.03;7.27;;;15.00;99.90;;;;;;5049005;28;20165;-80
2023/05/21 00:07:07;;;;;;;7.37;6.67;;;15.00;99.90;;;;;;5037757;28;20173;-79
2023/05/21 00:09:34;;;;;;;8.27;7.47;;;15.00;99.90;;;;;;5044813;28;20215;-79
2023/05/21 00:12:00;;;;;;;8.47;6.87;;;15.00;99.90;;;;;;5036164;28;20169;-80
2023/05/21 00:14:26;;;;;;;7.87;7.07;;;14.90;99.90;;;;;;5036778;28;20238;-78
2023/05/21 00:16:52;;;;;;;10.17;7.57;;;14.90;99.90;;;;;;5043998;28;20179;-80
2023/05/21 00:19:18;;;;;;;7.73;7.03;;;14.90;99.90;;;;;;5038704;28;20243;-79
2023/05/21 00:21:44;;;;;;;8.67;6.90;;;14.80;99.90;;;;;;5040375;28;20180;-79
2023/05/21 00:24:10;;;;;;;7.60;6.70;;;14.80;99.90;;;;;;5041758;28;20196;-81
2023/05/21 00:26:36;;;;;;;7.93;7.13;;;14.90;99.90;;;;;;5034370;28;20512;-79
2023/05/21 00:29:02;;;;;;;7.40;6.60;;;14.90;99.90;;;;;;5035414;28;20187;-79
2023/05/21 00:31:29;;;;;;;7.30;6.57;;;14.90;99.90;;;;;;5036294;28;20180;-79
2023/05/21 00:33:55;;;;;;;8.40;7.27;;;14.90;99.90;;;;;;5041882;28;20182;-79
2023/05/21 00:36:22;;;;;;;9.57;7.63;;;14.90;99.90;;;;;;5041148;28;20169;-80
2023/05/21 00:38:49;;;;;;;8.13;7.17;;;15.00;99.90;;;;;;5041501;28;20168;-78
2023/05/21 00:41:15;;;;;;;7.70;7.00;;;14.90;99.90;;;;;;5035669;28;20215;-80
2023/05/21 00:43:43;;;;;;;8.90;7.53;;;15.00;99.90;;;;;;5034629;28;20207;-79
2023/05/21 00:46:20;;;;;;;7.83;7.03;;;14.90;99.90;;;;;;5034909;28;20195;-79
2023/05/21 00:48:49;;;;;;;9.00;7.53;;;15.00;99.90;;;;;;5033705;28;20207;-79
2023/05/21 00:51:17;;;;;;;9.13;8.23;;;15.00;99.90;;;;;;5034649;28;20172;-78
2023/05/21 00:53:43;;;;;;;8.13;7.33;;;15.00;99.90;;;;;;5033886;28;20255;-79
2023/05/21 00:56:09;;;;;;;8.30;7.40;;;15.10;99.90;;;;;;5034169;28;20184;-78
2023/05/21 00:58:38;;;;;;;8.27;7.20;;;15.10;99.90;;;;;;5034147;28;20181;-80
2023/05/21 01:01:05;;;;;;;7.70;7.00;;;15.20;99.90;;;;;;5034361;28;20194;-78
2023/05/21 01:03:37;;;;;;;8.30;6.90;;;15.10;99.90;;;;;;5033976;28;20619;-80
2023/05/21 01:06:06;;;;;;;8.20;7.30;;;15.20;99.90;;;;;;5033824;28;20563;-79
2023/05/21 01:08:33;;;;;;;8.27;7.47;;;15.20;99.90;;;;;;5033773;28;20627;-80
2023/05/21 01:11:02;;;;;;;9.60;6.70;;;15.30;99.90;;;;;;5034462;28;20180;-81
2023/05/21 01:13:29;;;;;;;9.93;6.87;;;15.30;99.90;;;;;;5034014;28;20243;-80
2023/05/21 01:16:00;;;;;;;7.47;6.77;;;15.30;99.90;;;;;;5034193;28;20195;-79
2023/05/21 01:18:26;;;;;;;8.43;7.50;;;15.30;99.90;;;;;;5033000;28;20302;-79
2023/05/21 01:20:52;;;;;;;8.23;7.40;;;15.20;99.90;;;;;;5034360;28;20177;-79
2023/05/21 01:23:19;;;;;;;7.73;6.93;;;15.20;99.90;;;;;;5034108;28;20216;-79
2023/05/21 01:25:45;;;;;;;7.87;7.03;;;15.30;99.90;;;;;;5034513;28;20177;-79
2023/05/21 01:28:12;;;;;;;8.37;7.53;;;15.30;99.90;;;;;;5032910;28;20683;-80
2023/05/21 01:30:40;;;;;;;7.90;7.10;;;15.30;99.90;;;;;;5034245;28;20173;-79
2023/05/21 01:33:19;;;;;;;8.43;7.40;;;15.20;99.90;;;;;;5041124;28;20181;-79
2023/05/21 01:36:04;;;;;;;7.50;6.80;;;15.20;99.90;;;;;;5034072;28;20193;-79
2023/05/21 01:38:34;;;;;;;7.80;7.07;;;15.20;99.90;;;;;;5034252;28;20165;-81
2023/05/21 01:41:09;;;;;;;8.97;7.20;;;15.20;99.90;;;;;;5037194;28;20279;-78
2023/05/21 01:43:39;;;;;;;8.27;7.23;;;15.20;99.90;;;;;;5037608;28;20248;-79
2023/05/21 01:46:06;;;;;;;8.57;7.70;;;15.20;99.90;;;;;;5038327;28;20152;-80
2023/05/21 01:48:34;;;;;;;9.03;8.13;;;15.20;99.90;;;;;;5033586;28;20260;-79
2023/05/21 01:51:02;;;;;;;7.80;6.80;;;15.20;99.90;;;;;;5033516;28;20244;-80
2023/05/21 01:53:28;;;;;;;9.30;7.80;;;15.20;99.90;;;;;;5032048;28;20180;-80
2023/05/21 01:55:54;;;;;;;7.93;7.13;;;15.10;99.90;;;;;;5038233;28;20169;-78
2023/05/21 01:58:21;;;;;;;7.67;6.97;;;15.10;99.90;;;;;;5034977;28;20200;-82
2023/05/21 02:00:49;;;;;;;7.67;6.93;;;15.10;99.90;;;;;;5031764;28;20172;-79
2023/05/21 02:03:16;;;;;;;7.47;6.70;;;15.10;99.90;;;;;;5033292;28;20204;-79
2023/05/21 02:05:42;;;;;;;9.40;7.27;;;15.10;99.90;;;;;;5034123;28;20569;-77
2023/05/21 02:08:08;;;;;;;8.47;7.57;;;15.10;99.90;;;;;;5043661;28;20173;-80
2023/05/21 02:10:35;;;;;;;7.93;7.13;;;15.10;99.90;;;;;;5033851;28;20193;-79
2023/05/21 02:13:01;;;;;;;8.10;7.33;;;15.10;99.90;;;;;;5033210;28;20164;-82
2023/05/21 02:15:27;;;;;;;7.77;7.07;;;15.10;99.90;;;;;;5033092;28;20176;-81
2023/05/21 02:17:52;;;;;;;8.03;7.23;;;15.10;99.90;;;;;;5033456;28;20506;-82
2023/05/21 02:20:18;;;;;;;8.20;7.33;;;15.10;99.90;;;;;;5033042;28;20176;-81
2023/05/21 02:22:46;;;;;;;8.17;7.40;;;15.10;99.90;;;;;;5032936;28;20593;-81
2023/05/21 02:25:14;;;;;;;8.37;7.57;;;15.00;99.90;;;;;;5032734;28;20335;-79
2023/05/21 02:27:41;;;;;;;8.07;7.20;;;14.90;99.90;;;;;;5032856;28;20169;-79
2023/05/21 02:30:12;;;;;;;7.67;6.97;;;14.90;99.90;;;;;;5032263;28;20184;-82
2023/05/21 02:32:41;;;;;;;8.60;7.60;;;14.90;99.90;;;;;;5032698;28;20176;-81
2023/05/21 02:35:08;;;;;;;8.50;7.60;;;14.80;99.90;;;;;;5032378;28;20180;-80
2023/05/21 02:37:34;;;;;;;8.93;8.03;;;14.80;99.90;;;;;;5032249;28;20602;-80
2023/05/21 02:40:02;;;;;;;8.33;7.33;;;14.80;99.90;;;;;;5032288;28;20222;-80
2023/05/21 02:42:29;;;;;;;8.73;7.43;;;14.80;99.90;;;;;;5032531;28;20193;-79
2023/05/21 02:44:55;;;;;;;8.70;7.80;;;14.70;99.90;;;;;;5032066;28;20203;-79
2023/05/21 02:47:22;;;;;;;8.67;7.53;;;14.70;99.90;;;;;;5033071;28;20164;-79
2023/05/21 02:49:49;;;;;;;8.57;7.70;;;14.60;99.90;;;;;;5037834;28;20266;-79
2023/05/21 02:52:18;;;;;;;9.03;7.53;;;14.70;99.90;;;;;;5032790;28;20181;-79
2023/05/21 02:54:45;;;;;;;10.97;8.47;;;14.60;99.90;;;;;;5032501;28;20218;-80
2023/05/21 02:57:11;;;;;;;9.47;8.57;;;14.50;99.90;;;;;;5034156;28;20165;-80
2023/05/21 02:59:37;;;;;;;8.77;7.87;;;14.50;99.90;;;;;;5033327;28;20578;-81
2023/05/21 03:02:03;;;;;;;9.07;7.83;;;14.50;99.90;;;;;;5032970;28;20180;-78
2023/05/21 03:04:28;;;;;;;8.70;7.80;;;14.50;99.90;;;;;;5032036;28;20212;-79
2023/05/21 03:06:55;;;;;;;8.00;7.30;;;14.50;99.90;;;;;;5038806;28;20172;-79
2023/05/21 03:09:21;;;;;;;9.50;8.23;;;14.40;99.90;;;;;;5041036;28;20691;-79
2023/05/21 03:11:50;;;;;;;9.23;8.33;;;14.40;99.90;;;;;;5033180;28;20175;-80
2023/05/21 03:14:16;;;;;;;10.67;7.93;;;14.40;99.90;;;;;;5035015;28;20176;-79
2023/05/21 03:16:42;;;;;;;8.87;7.97;;;14.30;99.90;;;;;;5037918;28;20164;-79
2023/05/21 03:19:12;;;;;;;8.40;7.60;;;14.40;99.90;;;;;;5035947;28;20204;-80
2023/05/21 03:21:38;;;;;;;9.73;8.73;;;14.40;99.90;;;;;;5037116;28;20168;-79
2023/05/21 03:24:05;;;;;;;9.57;8.57;;;14.40;99.90;;;;;;5042204;28;20204;-81
2023/05/21 03:26:31;;;;;;;9.57;8.50;;;14.40;99.90;;;;;;5038699;28;20169;-78
2023/05/21 03:28:57;;;;;;;11.00;8.90;;;14.40;99.90;;;;;;5037015;28;20185;-81
2023/05/21 03:31:26;;;;;;;10.10;8.17;;;14.40;99.90;;;;;;5041925;28;20180;-80
2023/05/21 03:33:52;;;;;;;9.57;8.47;;;14.40;99.90;;;;;;5036093;28;20172;-79
2023/05/21 03:36:19;;;;;;;9.50;8.00;;;14.40;99.90;;;;;;5036168;28;20223;-79
2023/05/21 03:38:44;;;;;;;9.50;8.50;;;14.40;99.90;;;;;;5036596;28;20189;-80
2023/05/21 03:41:10;;;;;;;9.37;8.37;;;14.40;99.90;;;;;;5038617;28;20255;-81
2023/05/21 03:43:36;;;;;;;10.57;7.63;;;14.40;99.90;;;;;;5039667;28;20200;-79
2023/05/21 03:46:02;;;;;;;10.73;8.50;;;14.40;99.90;;;;;;5036311;28;20172;-79
2023/05/21 03:48:28;;;;;;;8.60;7.80;;;14.40;99.90;;;;;;5034653;28;20546;-79
2023/05/21 03:50:54;;;;;;;10.37;8.10;;;14.40;99.90;;;;;;5035895;28;20176;-80
2023/05/21 03:53:20;;;;;;;8.50;7.60;;;14.50;99.90;;;;;;5035628;28;20258;-81
2023/05/21 03:55:53;;;;;;;9.37;7.90;;;14.50;99.90;;;;;;5035810;28;20731;-79
2023/05/21 03:58:21;;;;;;;8.70;7.90;;;14.50;99.90;;;;;;5036102;28;20165;-79
2023/05/21 04:00:47;;;;;;;8.70;7.80;;;14.60;99.90;;;;;;5034390;28;20187;-79
2023/05/21 04:03:14;;;;;;;9.20;7.87;;;14.60;99.90;;;;;;5036001;28;20199;-79
2023/05/21 04:05:41;;;;;;;13.50;8.73;;;14.90;99.90;;;;;;5034762;28;20274;-80
2023/05/21 04:08:07;;;;;;;8.83;7.90;;;12.90;99.90;;;;;;5045790;28;20172;-78
2023/05/21 04:10:33;;;;;;;9.73;7.80;;;14.60;99.90;;;;;;5035665;28;20313;-81
2023/05/21 04:12:59;;;;;;;10.43;8.23;;;14.70;99.90;;;;;;5035285;28;20183;-79
2023/05/21 04:15:26;;;;;;;9.20;8.07;;;14.80;99.90;;;;;;5035176;28;20185;-78
2023/05/21 04:17:53;;;;;;;8.53;7.60;;;14.90;99.90;;;;;;5035305;28;20638;-80
2023/05/21 04:20:19;;;;;;;8.73;7.83;;;14.90;99.90;;;;;;5034543;28;20180;-79
2023/05/21 04:22:46;;;;;;;9.23;7.97;;;15.00;99.90;;;;;;5035955;28;20545;-79
2023/05/21 04:25:12;;;;;;;9.60;8.40;;;15.00;99.90;;;;;;5035228;28;20645;-80
2023/05/21 04:27:38;;;;;;;10.47;8.07;;;15.00;99.90;;;;;;5036535;28;20187;-79
2023/05/21 04:30:05;;;;;;;8.93;8.00;;;15.10;99.90;;;;;;5035879;28;20667;-79
2023/05/21 04:32:32;;;;;;;10.17;8.13;;;15.20;99.90;;;;;;5041128;28;20185;-79
2023/05/21 04:34:59;;;;;;;9.23;8.33;;;15.20;99.90;;;;;;5038878;28;20671;-78
2023/05/21 04:37:26;;;;;;;8.13;7.40;;;15.30;99.90;;;;;;5037054;28;20196;-79
2023/05/21 04:39:53;;;;;;;10.87;7.93;;;15.30;99.90;;;;;;5034969;28;20169;-78
2023/05/21 04:42:22;;;;;;;8.53;7.67;;;15.40;99.90;;;;;;5036539;28;20173;-79
2023/05/21 04:44:49;;;;;;;9.73;7.80;;;15.50;99.90;;;;;;5034797;28;20176;-79
2023/05/21 04:47:17;;;;;;;10.50;8.30;;;15.60;99.90;;;;;;5034626;28;20432;-78
2023/05/21 04:49:43;;;;;;;8.83;7.93;;;15.70;99.90;;;;;;5034981;28;20181;-79
2023/05/21 04:52:09;;;;;;;8.90;8.00;;;15.70;99.90;;;;;;5033471;28;20185;-79
2023/05/21 04:54:37;;;;;;;11.07;8.27;;;15.80;99.90;;;;;;5034682;28;20196;-79
2023/05/21 04:57:05;;;;;;;9.07;8.07;;;15.90;99.90;;;;;;5033494;28;20176;-79
2023/05/21 04:59:30;;;;;;;8.73;7.83;;;15.90;99.90;;;;;;5034959;28;20172;-81
2023/05/21 05:01:56;;;;;;;8.87;7.97;;;16.00;99.90;;;;;;5034988;28;20516;-80
2023/05/21 05:04:22;;;;;;;8.53;7.73;;;16.10;99.90;;;;;;5036963;28;20284;-80
2023/05/21 05:06:48;;;;;;;8.57;7.67;;;16.10;99.90;;;;;;5038520;28;20198;-78
2023/05/21 05:09:14;;;;;;;9.37;8.00;;;16.20;99.90;;;;;;5034630;28;20224;-79
2023/05/21 05:11:40;;;;;;;9.83;8.53;;;16.20;99.90;;;;;;5034606;28;20179;-79
2023/05/21 05:14:06;;;;;;;9.67;8.47;;;16.20;99.90;;;;;;5034421;28;20254;-78
2023/05/21 05:16:32;;;;;;;9.13;8.23;;;16.10;99.90;;;;;;5034002;28;20177;-79
2023/05/21 05:18:58;;;;;;;10.37;8.93;;;16.00;99.90;;;;;;5033412;28;20660;-80
2023/05/21 05:21:24;;;;;;;9.13;8.20;;;16.00;99.90;;;;;;5033718;28;20176;-78
2023/05/21 05:23:50;;;;;;;9.43;8.47;;;16.00;99.90;;;;;;5043495;28;20197;-80
2023/05/21 05:26:16;;;;;;;9.43;8.17;;;16.00;99.90;;;;;;5036424;28;20180;-78
2023/05/21 05:28:41;;;;;;;11.63;8.97;;;16.10;99.90;;;;;;5033979;28;20529;-80
2023/05/21 05:31:07;;;;;;;10.03;8.80;;;16.20;99.90;;;;;;5034359;28;20186;-79
2023/05/21 05:33:33;;;;;;;10.30;8.83;;;16.20;99.90;;;;;;5034261;28;20176;-78
2023/05/21 05:35:59;;;;;;;9.93;8.37;;;16.40;99.90;;;;;;5033448;28;20178;-78
2023/05/21 05:38:25;;;;;;;9.70;8.70;;;16.40;99.90;;;;;;5034145;28;20201;-79
2023/05/21 05:40:51;;;;;;;10.07;9.00;;;16.60;99.90;;;;;;5034181;28;20575;-79
2023/05/21 05:43:17;;;;;;;9.70;8.67;;;16.60;99.90;;;;;;5034034;28;20204;-79
2023/05/21 05:45:43;;;;;;;9.40;8.03;;;16.60;99.90;;;;;;5033908;28;20167;-80
2023/05/21 05:48:08;;;;;;;8.87;7.97;;;16.70;99.90;;;;;;5035526;28;20744;-79
2023/05/21 05:50:34;;;;;;;8.43;7.63;;;16.80;99.90;;;;;;5034478;28;20175;-79
2023/05/21 05:53:00;;;;;;;9.70;8.10;;;16.90;99.90;;;;;;5039900;28;20173;-79
2023/05/21 05:55:26;;;;;;;8.50;7.70;;;17.00;99.90;;;;;;5039763;28;20176;-79
2023/05/21 05:57:52;;;;;;;9.20;8.30;;;17.00;99.90;;;;;;5040780;28;20176;-79
2023/05/21 06:00:18;;;;;;;9.07;8.17;;;17.00;99.90;;;;;;5038430;28;20182;-80
2023/05/21 06:02:44;;;;;;;9.63;8.63;;;17.00;99.90;;;;;;5035246;28;20184;-79
2023/05/21 06:05:10;;;;;;;8.90;8.00;;;17.00;99.90;;;;;;5034195;28;20187;-81
2023/05/21 06:07:39;;;;;;;8.67;7.87;;;17.10;99.90;;;;;;5033862;28;20640;-80
2023/05/21 06:10:09;;;;;;;12.73;10.03;;;17.30;99.90;;;;;;5034147;28;20283;-83
2023/05/21 06:12:34;;;;;;;10.00;8.83;;;17.30;99.90;;;;;;5034863;28;20755;-80
2023/05/21 06:15:00;;;;;;;9.47;7.83;;;17.50;99.90;;;;;;5033813;28;20199;-79
2023/05/21 06:17:26;;;;;;;8.00;7.20;;;17.70;99.90;;;;;;5034116;28;20230;-80
2023/05/21 06:19:52;;;;;;;12.23;7.77;;;17.80;99.90;;;;;;5033912;28;20177;-81
2023/05/21 06:22:17;;;;;;;8.57;7.67;;;18.00;99.90;;;;;;5033630;28;20204;-81
2023/05/21 06:24:43;;;;;;;9.53;7.93;;;18.10;99.90;;;;;;5033158;28;20181;-79
2023/05/21 06:27:09;;;;;;;8.60;7.80;;;18.30;99.90;;;;;;5034262;28;20259;-80
2023/05/21 06:29:35;;;;;;;8.13;7.33;;;18.30;99.90;;;;;;5035037;28;20187;-82
2023/05/21 06:32:00;;;;;;;7.57;6.87;;;18.50;99.90;;;;;;5033848;28;20256;-80
2023/05/21 06:34:27;;;;;;;10.63;7.60;;;18.50;99.90;;;;;;5033294;28;20180;-81
2023/05/21 06:36:53;;;;;;;7.83;7.13;;;18.70;99.90;;;;;;5033227;28;20702;-80
2023/05/21 06:39:19;;;;;;;6.80;6.20;;;19.30;99.90;;;;;;5039631;28;20176;-82
2023/05/21 06:41:45;;;;;;;7.20;6.60;;;19.10;99.90;;;;;;5039300;28;20270;-81
2023/05/21 06:44:11;;;;;;;7.87;7.07;;;19.10;99.90;;;;;;5038217;28;20247;-79
2023/05/21 06:46:37;;;;;;;7.70;7.00;;;19.20;99.90;;;;;;5038098;28;20632;-79
2023/05/21 06:49:05;;;;;;;8.73;6.60;;;19.20;99.90;;;;;;5033992;28;20165;-79
2023/05/21 06:51:31;;;;;;;7.27;6.57;;;19.30;99.90;;;;;;5041788;28;20168;-80
2023/05/21 06:53:57;;;;;;;7.73;7.03;;;19.40;99.90;;;;;;5033242;28;20694;-78
2023/05/21 06:56:22;;;;;;;8.63;7.10;;;19.50;99.90;;;;;;5032649;28;20171;-81
2023/05/21 06:58:48;;;;;;;9.10;7.13;;;19.40;99.90;;;;;;5031520;28;20547;-80
2023/05/21 07:01:15;;;;;;;7.97;6.63;;;19.40;99.90;;;;;;5032887;28;20204;-80
2023/05/21 07:03:41;;;;;;;7.33;6.63;;;19.30;99.90;;;;;;5032442;28;20250;-79
2023/05/21 07:06:06;;;;;;;7.37;6.40;;;19.40;99.90;;;;;;5032704;28;20200;-79
2023/05/21 07:08:32;;;;;;;8.60;7.67;;;19.40;99.90;;;;;;5033936;28;20180;-80
2023/05/21 07:10:58;;;;;;;8.90;7.20;;;19.50;99.90;;;;;;5036149;28;20231;-79
2023/05/21 07:13:24;;;;;;;8.27;6.93;;;19.60;99.90;;;;;;5033498;28;20230;-81
2023/05/21 07:15:49;;;;;;;7.73;7.03;;;19.80;99.90;;;;;;5033452;28;20629;-80
2023/05/21 07:18:15;;;;;;;7.97;6.90;;;19.80;99.90;;;;;;5033573;28;20172;-81
2023/05/21 07:20:41;;;;;;;7.47;6.47;;;19.80;99.90;;;;;;5037261;28;20185;-79
2023/05/21 07:23:07;;;;;;;8.03;7.00;;;20.00;99.90;;;;;;5038748;28;20215;-78
2023/05/21 07:25:33;;;;;;;7.80;7.00;;;19.90;99.90;;;;;;5036121;28;20176;-79
2023/05/21 07:27:58;;;;;;;7.83;6.97;;;19.80;99.90;;;;;;5033203;28;20172;-81
2023/05/21 07:30:24;;;;;;;7.40;6.60;;;19.90;99.90;;;;;;5032759;28;20265;-79
2023/05/21 07:32:50;;;;;;;7.47;6.73;;;20.00;99.90;;;;;;5031156;28;20187;-80
2023/05/21 07:35:16;;;;;;;7.90;6.47;;;20.20;99.90;;;;;;5032566;28;20200;-81
2023/05/21 07:37:41;;;;;;;7.27;6.57;;;20.20;99.90;;;;;;5033284;28;20165;-81
2023/05/21 07:40:08;;;;;;;7.80;6.90;;;20.40;99.90;;;;;;5033545;28;20169;-82
2023/05/21 07:42:33;;;;;;;7.97;7.20;;;20.50;99.90;;;;;;5031762;28;20311;-83
2023/05/21 07:44:59;;;;;;;8.50;6.87;;;20.50;99.90;;;;;;5033081;28;20180;-83
2023/05/21 07:47:25;;;;;;;7.73;7.03;;;20.60;99.90;;;;;;5034693;28;20181;-83
2023/05/21 07:49:52;;;;;;;6.80;6.20;;;20.40;99.90;;;;;;5034749;28;20219;-84
2023/05/21 07:52:18;;;;;;;7.47;6.77;;;20.60;99.90;;;;;;5033879;28;20505;-84
2023/05/21 07:54:44;;;;;;;6.57;6.07;;;20.50;99.90;;;;;;5039863;28;20183;-85
2023/05/21 07:57:10;;;;;;;7.20;6.60;;;21.70;99.90;;;;;;5045676;28;20629;-85
2023/05/21 07:59:35;;;;;;;7.33;6.63;;;20.50;99.90;;;;;;5036841;28;20188;-84
2023/05/21 08:02:01;;;;;;;7.00;6.30;;;20.60;99.90;;;;;;5038185;28;20208;-85
2023/05/21 08:04:27;;;;;;;7.07;6.47;;;20.80;99.90;;;;;;5037048;28;20603;-85
2023/05/21 08:06:53;;;;;;;9.23;7.13;;;20.60;99.90;;;;;;5037768;28;20608;-86
2023/05/21 08:09:18;;;;;;;7.00;6.30;;;20.60;99.90;;;;;;5036560;28;20216;-84
2023/05/21 08:11:45;;;;;;;7.07;6.40;;;20.90;99.90;;;;;;5036884;28;20164;-84
2023/05/21 08:14:10;;;;;;;8.13;6.70;;;20.90;99.90;;;;;;5039053;28;20275;-83
2023/05/21 08:16:36;;;;;;;7.50;6.80;;;20.70;99.90;;;;;;5049403;28;20624;-85
2023/05/21 08:19:02;;;;;;;7.10;6.40;;;20.60;99.90;;;;;;5042243;28;20223;-88
2023/05/21 08:21:28;;;;;;;7.23;6.67;;;20.80;99.90;;;;;;5038407;28;20169;-85
2023/05/21 08:23:54;;;;;;;7.17;6.47;;;20.90;99.90;;;;;;5041617;28;20246;-83
2023/05/21 08:26:20;;;;;;;7.00;6.30;;;20.80;99.90;;;;;;5055540;28;20201;-84
2023/05/21 08:28:46;;;;;;;8.37;6.63;;;20.50;99.90;;;;;;5039753;28;20169;-83
2023/05/21 08:31:12;;;;;;;6.90;6.20;;;20.80;99.90;;;;;;5048024;28;20165;-84
2023/05/21 08:33:38;;;;;;;7.40;6.70;;;20.80;99.90;;;;;;5041969;28;20238;-85
2023/05/21 08:36:05;;;;;;;6.40;5.80;;;21.20;99.90;;;;;;5037172;28;20172;-87
2023/05/21 08:38:31;;;;;;;9.00;6.90;;;21.60;99.90;;;;;;5036831;28;20176;-84
2023/05/21 08:40:58;;;;;;;6.37;5.77;;;21.60;99.90;;;;;;5040550;28;20179;-85
2023/05/21 08:43:27;;;;;;;6.83;6.23;;;21.70;99.90;;;;;;5038076;28;20193;-84
2023/05/21 08:45:54;;;;;;;6.67;6.07;;;21.60;99.90;;;;;;5043346;28;20173;-84
2023/05/21 08:48:22;;;;;;;6.23;5.70;;;21.50;99.90;;;;;;5057458;28;20173;-83
2023/05/21 08:50:52;;;;;;;6.63;5.93;;;21.80;99.90;;;;;;5054645;28;20177;-86
2023/05/21 08:53:18;;;;;;;6.43;5.80;;;21.90;99.90;;;;;;5040261;28;20175;-86
2023/05/21 08:55:45;;;;;;;6.40;5.90;;;22.10;99.90;;;;;;5035246;28;20172;-87
2023/05/21 08:58:12;;;;;;;6.20;5.72;;;22.10;99.90;;;;;;5036513;28;20180;-85
2023/05/21 09:00:38;;;;;;;6.83;5.70;;;22.10;99.90;;;;;;5036779;28;20168;-84
2023/05/21 09:03:09;;;;;;;6.67;6.07;;;22.00;99.90;;;;;;5039205;28;20264;-85
2023/05/21 09:05:37;;;;;;;6.77;6.17;;;21.60;99.90;;;;;;5041027;28;20226;-85
2023/05/21 09:08:23;;;;;;;7.23;6.23;;;21.50;99.90;;;;;;5037049;28;20173;-85
2023/05/21 09:10:51;;;;;;;6.60;6.00;;;21.70;99.90;;;;;;5036496;28;20305;-84
2023/05/21 09:13:17;;;;;;;6.87;6.27;;;23.20;99.90;;;;;;5043870;28;20172;-88
2023/05/21 09:15:44;;;;;;;6.35;5.75;;;22.30;99.90;;;;;;5039684;28;20199;-87
2023/05/21 09:18:11;;;;;;;6.63;6.03;;;22.50;99.90;;;;;;5037168;28;20168;-86
2023/05/21 09:20:37;;;;;;;6.60;5.90;;;22.40;99.90;;;;;;5036365;28;20177;-84
2023/05/21 09:23:05;;;;;;;6.45;5.38;;;22.60;99.90;;;;;;5035025;28;20197;-86
2023/05/21 09:25:31;;;;;;;5.32;4.93;;;22.60;99.90;;;;;;5033991;28;20183;-86
2023/05/21 09:28:00;;;;;;;5.97;5.47;;;22.70;99.90;;;;;;5035964;28;20185;-85
2023/05/21 09:30:27;;;;;;;7.78;5.38;;;22.80;99.80;;;;;;5036655;28;20173;-85
2023/05/21 09:32:57;;;;;;;5.97;5.47;;;23.00;99.90;;;;;;5034944;28;20184;-83
2023/05/21 09:35:23;;;;;;;6.93;6.32;;;23.00;99.90;;;;;;5039782;28;20165;-85
2023/05/21 09:37:51;;;;;;;6.22;5.72;;;23.00;99.90;;;;;;5038323;28;20203;-86
2023/05/21 09:40:19;;;;;;;6.82;5.65;;;23.20;99.90;;;;;;5038284;28;20232;-86
2023/05/21 09:42:47;;;;;;;6.00;5.10;;;23.40;99.20;;;;;;5039284;28;20215;-85
2023/05/21 09:45:21;;;;;;;6.07;5.50;;;23.50;99.40;;;;;;5040049;28;20230;-84
2023/05/21 09:47:48;;;;;;;6.70;6.10;;;23.60;99.20;;;;;;5038470;28;20161;-84
2023/05/21 09:50:18;;;;;;;5.82;5.43;;;23.80;99.30;;;;;;5053146;28;20198;-83
2023/05/21 09:52:44;;;;;;;5.85;5.38;;;23.90;98.90;;;;;;5051024;28;20175;-84
2023/05/21 09:55:12;;;;;;;6.03;5.50;;;23.60;99.00;;;;;;5038608;28;20200;-84
2023/05/21 09:57:46;;;;;;;6.35;5.75;;;23.60;98.80;;;;;;5054137;28;20184;-85
2023/05/21 10:00:22;;;;;;;5.95;5.30;;;23.70;98.80;;;;;;5057437;28;20177;-84
2023/05/21 10:02:59;;;;;;;6.07;5.57;;;23.90;98.50;;;;;;5045802;28;20198;-85
2023/05/21 10:05:28;;;;;;;6.30;5.80;;;23.60;98.80;;;;;;5040213;28;20195;-83
2023/05/21 10:08:01;;;;;;;6.22;5.70;;;23.80;98.50;;;;;;5046785;28;20195;-84
2023/05/21 10:10:27;;;;;;;6.32;5.82;;;24.00;98.60;;;;;;5040722;28;20436;-83
2023/05/21 10:13:13;;;;;;;6.50;5.90;;;24.20;97.40;;;;;;5055277;28;20206;-83
2023/05/21 10:15:52;;;;;;;6.25;5.72;;;24.20;95.90;;;;;;5056593;28;20193;-82
2023/05/21 10:18:20;;;;;;;7.00;6.32;;;24.20;96.90;;;;;;5038804;28;20702;-86
2023/05/21 10:20:46;;;;;;;7.10;6.28;;;24.20;97.20;;;;;;5032628;28;20195;-85
2023/05/21 10:23:12;;;;;;;6.70;6.10;;;24.20;97.20;;;;;;5033830;28;20208;-85
2023/05/21 10:25:40;;;;;;;6.28;5.70;;;24.20;96.80;;;;;;5054188;28;20176;-84
2023/05/21 10:28:05;;;;;;;6.90;6.30;;;24.00;96.40;;;;;;5038352;28;20183;-84
2023/05/21 10:30:32;;;;;;;8.73;6.22;;;23.90;97.00;;;;;;5043867;28;20176;-85
2023/05/21 10:32:58;;;;;;;6.28;5.38;;;23.80;96.80;;;;;;5038744;28;20363;-86
2023/05/21 10:35:24;;;;;;;6.25;5.68;;;23.80;96.20;;;;;;5033395;28;20726;-86
2023/05/21 10:37:52;;;;;;;6.10;5.60;;;23.80;96.90;;;;;;5037172;28;20184;-84
2023/05/21 10:40:19;;;;;;;6.28;5.78;;;23.70;97.30;;;;;;5033603;28;20251;-86
2023/05/21 10:42:51;;;;;;;7.63;5.70;;;23.70;97.10;;;;;;5033511;28;20216;-83
2023/05/21 10:45:31;;;;;;;6.28;5.78;;;23.70;97.10;;;;;;5033878;28;20169;-84
2023/05/21 10:48:20;;;;;;;6.65;6.07;;;23.90;97.00;;;;;;5034304;28;20149;-88
2023/05/21 10:51:01;;;;;;;6.25;5.75;;;24.10;97.70;;;;;;5033687;28;20335;-84
2023/05/21 10:53:47;;;;;;;6.00;5.45;;;24.30;97.40;;;;;;5033654;28;20167;-86
2023/05/21 10:56:27;;;;;;;6.30;5.80;;;24.50;97.30;;;;;;5032626;28;20172;-87
2023/05/21 10:59:44;;;;;;;6.43;5.93;;;24.40;97.00;;;;;;5034065;28;20167;-85
2023/05/21 11:02:13;;;;;;;6.97;6.30;;;24.40;96.40;;;;;;4992633;28;20597;-83
2023/05/21 11:04:42;;;;;;;6.18;5.68;;;24.20;96.70;;;;;;4993808;28;20308;-82
2023/05/21 11:07:08;;;;;;;5.78;5.38;;;24.20;96.70;;;;;;4992425;28;20692;-82
2023/05/21 11:09:34;;;;;;;6.05;5.57;;;24.20;97.00;;;;;;4992122;28;20610;-83
2023/05/21 11:12:01;;;;;;;6.00;5.50;;;24.00;97.00;;;;;;4994042;28;20228;-83
2023/05/21 11:14:35;;;;;;;6.00;5.50;;;23.90;96.70;;;;;;5007262;28;20273;-82
2023/05/21 11:17:07;;;;;;;6.15;5.65;;;23.80;95.70;;;;;;4994268;28;20173;-83
2023/05/21 11:19:38;;;;;;;5.88;5.47;;;23.60;96.30;;;;;;4976366;28;20294;-86
2023/05/21 11:22:26;;;;;;;5.95;5.45;;;23.80;96.10;;;;;;4993052;28;20309;-83
2023/05/21 11:24:54;;;;;;;6.80;6.15;;;24.00;96.00;;;;;;5007259;28;20185;-84
2023/05/21 11:27:35;;;;;;;6.95;6.25;;;23.70;95.90;;;;;;5005585;28;20161;-83
2023/05/21 11:30:27;;;;;;;7.00;6.18;;;23.80;96.70;;;;;;4984167;28;20521;-85
2023/05/21 11:33:12;;;;;;;6.45;5.95;;;23.90;96.70;;;;;;4991098;28;20197;-85
2023/05/21 11:35:58;;;;;;;5.93;5.38;;;23.90;96.80;;;;;;5001290;28;20181;-84
2023/05/21 11:38:28;;;;;;;6.50;6.00;;;24.00;96.80;;;;;;5047454;28;20181;-84
2023/05/21 11:40:54;;;;;;;6.13;5.63;;;23.90;96.30;;;;;;5051093;28;20161;-82
2023/05/21 11:43:20;;;;;;;5.85;5.45;;;23.90;96.30;;;;;;5049825;28;20253;-84
2023/05/21 11:45:46;;;;;;;6.35;5.82;;;24.10;96.20;;;;;;5059267;28;20187;-84
2023/05/21 11:48:16;;;;;;;6.15;5.65;;;24.20;95.80;;;;;;5043739;28;20697;-84
2023/05/21 11:50:42;;;;;;;6.40;5.90;;;24.00;95.70;;;;;;5036382;28;20525;-84
2023/05/21 11:53:08;;;;;;;6.20;5.70;;;24.00;94.50;;;;;;5040498;28;20184;-85
2023/05/21 11:55:42;;;;;;;6.10;5.63;;;24.10;94.80;;;;;;5038508;28;20164;-85
2023/05/21 11:58:10;;;;;;;6.20;5.60;;;24.20;94.70;;;;;;5035325;28;20177;-83
2023/05/21 12:00:39;;;;;;;6.53;5.57;;;24.10;94.50;;;;;;5036877;28;20176;-83
2023/05/21 12:03:11;;;;;;;6.25;5.75;;;24.20;94.80;;;;;;5038082;28;20243;-84
2023/05/21 12:05:47;;;;;;;6.35;5.60;;;24.30;94.60;;;;;;5037445;28;20625;-84
2023/05/21 12:08:20;;;;;;;6.30;5.80;;;24.40;94.30;;;;;;5046649;28;20179;-84
2023/05/21 12:10:45;;;;;;;6.88;6.28;;;24.50;94.70;;;;;;5044555;28;20350;-85
2023/05/21 12:13:11;;;;;;;6.70;5.95;;;24.60;94.60;;;;;;5036311;28;20261;-84
2023/05/21 12:15:37;;;;;;;5.97;5.38;;;24.50;93.20;;;;;;5035153;28;20180;-84
2023/05/21 12:18:03;;;;;;;5.93;5.50;;;24.40;93.50;;;;;;5035641;28;20568;-82
2023/05/21 12:20:28;;;;;;;6.15;5.65;;;24.40;93.20;;;;;;5035658;28;20250;-82
2023/05/21 12:22:56;;;;;;;6.20;5.60;;;24.40;93.70;;;;;;5034312;28;20215;-86
2023/05/21 12:25:22;;;;;;;6.78;5.30;;;24.60;93.10;;;;;;5036140;28;20179;-84
2023/05/21 12:27:56;;;;;;;5.97;5.47;;;24.40;92.90;;;;;;5035806;28;20232;-84
2023/05/21 12:30:23;;;;;;;6.47;5.97;;;24.40;93.50;;;;;;5036229;28;20243;-83
2023/05/21 12:32:49;;;;;;;6.40;5.90;;;24.20;93.10;;;;;;5035064;28;20226;-83
2023/05/21 12:35:22;;;;;;;6.90;6.18;;;24.20;93.50;;;;;;5044693;28;20272;-83
2023/05/21 12:37:49;;;;;;;8.07;6.82;;;24.20;94.10;;;;;;5035962;28;20172;-82
2023/05/21 12:40:15;;;;;;;6.25;5.75;;;24.20;93.70;;;;;;5035533;28;20173;-80
2023/05/21 12:42:43;;;;;;;6.20;5.72;;;24.20;94.50;;;;;;5034007;28;20165;-82
2023/05/21 12:45:10;;;;;;;6.25;5.45;;;24.10;94.60;;;;;;5041494;28;20172;-83
2023/05/21 12:47:36;;;;;;;6.13;5.63;;;24.10;94.30;;;;;;5052900;28;20198;-84
2023/05/21 12:50:06;;;;;;;6.13;5.53;;;24.10;94.30;;;;;;5039806;28;20525;-83